sensor_id;sensor_type;location;lat;lon;timestamp;temperature;humidity
37658;DHT22;23500;53.268;8.308;2022-09-01T00:01:51;20.90;64.60
37658;DHT22;23500;53.268;8.308;2022-09-01T00:04:23;20.80;64.30
37658;DHT22;23500;53.268;8.308;2022-09-01T00:06:52;20.90;64.10
37658;DHT22;23500;53.268;8.308;2022-09-01T00:09:21;20.80;63.80
37658;DHT22;23500;53.268;8.308;2022-09-01T00:11:50;20.80;63.90
37658;DHT22;23500;53.268;8.308;2022-09-01T00:14:22;20.80;64.00
37658;DHT22;23500;53.268;8.308;2022-09-01T00:16:48;20.80;64.40
37658;DHT22;23500;53.268;8.308;2022-09-01T00:19:14;20.80;63.90
37658;DHT22;23500;53.268;8.308;2022-09-01T00:21:43;20.80;64.00
37658;DHT22;23500;53.268;8.308;2022-09-01T00:24:10;20.70;64.40
37658;DHT22;23500;53.268;8.308;2022-09-01T00:26:36;20.70;64.30
37658;DHT22;23500;53.268;8.308;2022-09-01T00:29:03;20.70;64.40
37658;DHT22;23500;53.268;8.308;2022-09-01T00:31:29;20.70;64.40
37658;DHT22;23500;53.268;8.308;2022-09-01T00:33:55;20.70;65.00
37658;DHT22;23500;53.268;8.308;2022-09-01T00:36:21;20.70;64.30
37658;DHT22;23500;53.268;8.308;2022-09-01T00:38:48;20.70;64.60
37658;DHT22;23500;53.268;8.308;2022-09-01T00:41:15;20.70;64.80
37658;DHT22;23500;53.268;8.308;2022-09-01T00:43:53;20.70;64.70
37658;DHT22;23500;53.268;8.308;2022-09-01T00:46:28;20.70;64.30
37658;DHT22;23500;53.268;8.308;2022-09-01T00:49:02;20.70;65.40
37658;DHT22;23500;53.268;8.308;2022-09-01T00:51:29;20.70;65.00
37658;DHT22;23500;53.268;8.308;2022-09-01T00:53:57;20.70;65.00
37658;DHT22;23500;53.268;8.308;2022-09-01T00:56:23;20.70;65.20
37658;DHT22;23500;53.268;8.308;2022-09-01T00:58:50;20.70;65.00
37658;DHT22;23500;53.268;8.308;2022-09-01T01:01:17;20.70;64.90
37658;DHT22;23500;53.268;8.308;2022-09-01T01:03:43;20.60;64.90
37658;DHT22;23500;53.268;8.308;2022-09-01T01:06:12;20.70;64.80
37658;DHT22;23500;53.268;8.308;2022-09-01T01:08:45;20.60;64.60
37658;DHT22;23500;53.268;8.308;2022-09-01T01:11:26;20.60;65.50
37658;DHT22;23500;53.268;8.308;2022-09-01T01:16:25;20.60;65.50
37658;DHT22;23500;53.268;8.308;2022-09-01T01:18:52;20.60;65.40
37658;DHT22;23500;53.268;8.308;2022-09-01T01:21:25;20.60;65.60
37658;DHT22;23500;53.268;8.308;2022-09-01T01:26:45;20.60;65.50
37658;DHT22;23500;53.268;8.308;2022-09-01T01:29:12;20.60;65.80
37658;DHT22;23500;53.268;8.308;2022-09-01T01:31:37;20.60;66.00
37658;DHT22;23500;53.268;8.308;2022-09-01T01:34:03;20.60;65.60
37658;DHT22;23500;53.268;8.308;2022-09-01T01:36:34;20.60;65.70
37658;DHT22;23500;53.268;8.308;2022-09-01T01:39:26;20.60;66.40
37658;DHT22;23500;53.268;8.308;2022-09-01T01:41:54;20.60;64.70
37658;DHT22;23500;53.268;8.308;2022-09-01T01:44:23;20.60;66.30
37658;DHT22;23500;53.268;8.308;2022-09-01T01:46:53;20.60;66.30
37658;DHT22;23500;53.268;8.308;2022-09-01T01:49:23;20.60;66.00
37658;DHT22;23500;53.268;8.308;2022-09-01T01:51:50;20.50;66.10
37658;DHT22;23500;53.268;8.308;2022-09-01T01:54:23;20.60;66.20
37658;DHT22;23500;53.268;8.308;2022-09-01T01:56:49;20.60;66.00
37658;DHT22;23500;53.268;8.308;2022-09-01T01:59:14;20.50;65.80
37658;DHT22;23500;53.268;8.308;2022-09-01T02:01:42;20.60;65.90
37658;DHT22;23500;53.268;8.308;2022-09-01T02:04:09;20.50;66.10
37658;DHT22;23500;53.268;8.308;2022-09-01T02:06:36;20.50;67.10
37658;DHT22;23500;53.268;8.308;2022-09-01T02:09:05;20.50;66.40
37658;DHT22;23500;53.268;8.308;2022-09-01T02:11:31;20.50;66.50
37658;DHT22;23500;53.268;8.308;2022-09-01T02:14:01;20.50;65.90
37658;DHT22;23500;53.268;8.308;2022-09-01T02:16:29;20.50;66.30
37658;DHT22;23500;53.268;8.308;2022-09-01T02:18:57;20.50;66.40
37658;DHT22;23500;53.268;8.308;2022-09-01T02:21:25;20.50;66.50
37658;DHT22;23500;53.268;8.308;2022-09-01T02:23:56;20.50;66.40
37658;DHT22;23500;53.268;8.308;2022-09-01T02:26:44;20.50;66.70
37658;DHT22;23500;53.268;8.308;2022-09-01T02:29:19;20.50;65.90
37658;DHT22;23500;53.268;8.308;2022-09-01T02:31:48;20.40;66.60
37658;DHT22;23500;53.268;8.308;2022-09-01T02:34:15;20.50;67.10
37658;DHT22;23500;53.268;8.308;2022-09-01T02:36:50;20.40;67.10
37658;DHT22;23500;53.268;8.308;2022-09-01T02:39:22;20.50;66.80
37658;DHT22;23500;53.268;8.308;2022-09-01T02:41:48;20.50;67.00
37658;DHT22;23500;53.268;8.308;2022-09-01T02:44:14;20.50;67.20
37658;DHT22;23500;53.268;8.308;2022-09-01T02:46:43;20.50;67.00
37658;DHT22;23500;53.268;8.308;2022-09-01T02:49:14;20.50;67.50
37658;DHT22;23500;53.268;8.308;2022-09-01T02:51:48;20.50;67.40
37658;DHT22;23500;53.268;8.308;2022-09-01T02:54:15;20.50;67.90
37658;DHT22;23500;53.268;8.308;2022-09-01T02:56:44;20.50;67.00
37658;DHT22;23500;53.268;8.308;2022-09-01T02:59:14;20.50;67.40
37658;DHT22;23500;53.268;8.308;2022-09-01T03:01:41;20.50;67.50
37658;DHT22;23500;53.268;8.308;2022-09-01T03:04:07;20.50;67.10
37658;DHT22;23500;53.268;8.308;2022-09-01T03:06:36;20.50;67.30
37658;DHT22;23500;53.268;8.308;2022-09-01T03:09:06;20.50;67.40
37658;DHT22;23500;53.268;8.308;2022-09-01T03:11:35;20.50;67.40
37658;DHT22;23500;53.268;8.308;2022-09-01T03:14:02;20.50;67.50
37658;DHT22;23500;53.268;8.308;2022-09-01T03:16:28;20.50;67.00
37658;DHT22;23500;53.268;8.308;2022-09-01T03:18:55;20.50;67.20
37658;DHT22;23500;53.268;8.308;2022-09-01T03:21:21;20.50;67.00
37658;DHT22;23500;53.268;8.308;2022-09-01T03:23:48;20.50;67.30
37658;DHT22;23500;53.268;8.308;2022-09-01T03:26:15;20.50;67.00
37658;DHT22;23500;53.268;8.308;2022-09-01T03:28:44;20.50;67.10
37658;DHT22;23500;53.268;8.308;2022-09-01T03:31:10;20.50;67.50
37658;DHT22;23500;53.268;8.308;2022-09-01T03:33:36;20.50;67.30
37658;DHT22;23500;53.268;8.308;2022-09-01T03:36:02;20.50;67.40
37658;DHT22;23500;53.268;8.308;2022-09-01T03:38:28;20.50;67.10
37658;DHT22;23500;53.268;8.308;2022-09-01T03:41:04;20.50;67.70
37658;DHT22;23500;53.268;8.308;2022-09-01T03:43:32;20.50;67.50
37658;DHT22;23500;53.268;8.308;2022-09-01T03:45:58;20.50;67.50
37658;DHT22;23500;53.268;8.308;2022-09-01T03:48:25;20.50;67.40
37658;DHT22;23500;53.268;8.308;2022-09-01T03:50:54;20.50;67.60
37658;DHT22;23500;53.268;8.308;2022-09-01T03:53:22;20.50;67.50
37658;DHT22;23500;53.268;8.308;2022-09-01T03:55:52;20.50;67.80
37658;DHT22;23500;53.268;8.308;2022-09-01T03:58:19;20.50;67.70
37658;DHT22;23500;53.268;8.308;2022-09-01T04:00:47;20.50;67.10
37658;DHT22;23500;53.268;8.308;2022-09-01T04:03:15;20.50;67.50
37658;DHT22;23500;53.268;8.308;2022-09-01T04:05:46;20.50;67.70
37658;DHT22;23500;53.268;8.308;2022-09-01T04:08:13;20.50;67.50
37658;DHT22;23500;53.268;8.308;2022-09-01T04:10:47;20.50;67.40
37658;DHT22;23500;53.268;8.308;2022-09-01T04:13:25;20.50;67.40
37658;DHT22;23500;53.268;8.308;2022-09-01T04:15:51;20.50;67.50
37658;DHT22;23500;53.268;8.308;2022-09-01T04:18:18;20.40;67.60
37658;DHT22;23500;53.268;8.308;2022-09-01T04:20:53;20.50;67.30
37658;DHT22;23500;53.268;8.308;2022-09-01T04:23:22;20.50;67.70
37658;DHT22;23500;53.268;8.308;2022-09-01T04:25:57;20.40;67.30
37658;DHT22;23500;53.268;8.308;2022-09-01T04:28:25;20.40;67.60
37658;DHT22;23500;53.268;8.308;2022-09-01T04:30:56;20.40;67.10
37658;DHT22;23500;53.268;8.308;2022-09-01T04:33:26;20.40;67.50
37658;DHT22;23500;53.268;8.308;2022-09-01T04:35:59;20.40;67.60
37658;DHT22;23500;53.268;8.308;2022-09-01T04:38:25;20.40;67.50
37658;DHT22;23500;53.268;8.308;2022-09-01T04:40:54;20.40;67.60
37658;DHT22;23500;53.268;8.308;2022-09-01T04:43:22;20.40;67.60
37658;DHT22;23500;53.268;8.308;2022-09-01T04:45:47;20.40;67.70
37658;DHT22;23500;53.268;8.308;2022-09-01T04:48:17;20.40;67.60
37658;DHT22;23500;53.268;8.308;2022-09-01T04:50:43;20.40;67.60
37658;DHT22;23500;53.268;8.308;2022-09-01T04:53:09;20.40;67.70
37658;DHT22;23500;53.268;8.308;2022-09-01T04:55:39;20.40;67.60
37658;DHT22;23500;53.268;8.308;2022-09-01T04:58:08;20.40;67.90
37658;DHT22;23500;53.268;8.308;2022-09-01T05:00:38;20.40;68.00
37658;DHT22;23500;53.268;8.308;2022-09-01T05:03:05;20.40;67.80
37658;DHT22;23500;53.268;8.308;2022-09-01T05:05:39;20.40;68.10
37658;DHT22;23500;53.268;8.308;2022-09-01T05:08:13;20.40;67.80
37658;DHT22;23500;53.268;8.308;2022-09-01T05:10:44;20.40;67.90
37658;DHT22;23500;53.268;8.308;2022-09-01T05:13:13;20.40;68.10
37658;DHT22;23500;53.268;8.308;2022-09-01T05:15:42;20.40;68.00
37658;DHT22;23500;53.268;8.308;2022-09-01T05:18:15;20.40;67.70
37658;DHT22;23500;53.268;8.308;2022-09-01T05:20:51;20.40;68.00
37658;DHT22;23500;53.268;8.308;2022-09-01T05:23:18;20.40;67.80
37658;DHT22;23500;53.268;8.308;2022-09-01T05:25:46;20.40;67.60
37658;DHT22;23500;53.268;8.308;2022-09-01T05:28:17;20.40;67.90
37658;DHT22;23500;53.268;8.308;2022-09-01T05:30:45;20.40;68.00
37658;DHT22;23500;53.268;8.308;2022-09-01T05:33:12;20.40;68.10
37658;DHT22;23500;53.268;8.308;2022-09-01T05:35:42;20.40;68.00
37658;DHT22;23500;53.268;8.308;2022-09-01T05:38:17;20.40;68.00
37658;DHT22;23500;53.268;8.308;2022-09-01T05:40:43;20.40;68.20
37658;DHT22;23500;53.268;8.308;2022-09-01T05:43:11;20.40;67.90
37658;DHT22;23500;53.268;8.308;2022-09-01T05:45:42;20.40;68.00
37658;DHT22;23500;53.268;8.308;2022-09-01T05:48:11;20.40;68.50
37658;DHT22;23500;53.268;8.308;2022-09-01T05:50:46;20.40;68.70
37658;DHT22;23500;53.268;8.308;2022-09-01T05:53:14;20.40;68.50
37658;DHT22;23500;53.268;8.308;2022-09-01T05:55:45;20.50;68.60
37658;DHT22;23500;53.268;8.308;2022-09-01T05:58:13;20.50;69.00
37658;DHT22;23500;53.268;8.308;2022-09-01T06:00:42;20.50;69.00
37658;DHT22;23500;53.268;8.308;2022-09-01T06:03:10;20.50;68.90
37658;DHT22;23500;53.268;8.308;2022-09-01T06:05:36;20.50;68.00
37658;DHT22;23500;53.268;8.308;2022-09-01T06:08:03;20.50;68.10
37658;DHT22;23500;53.268;8.308;2022-09-01T06:10:30;20.50;68.60
37658;DHT22;23500;53.268;8.308;2022-09-01T06:12:57;20.50;68.20
37658;DHT22;23500;53.268;8.308;2022-09-01T06:15:29;20.50;68.50
37658;DHT22;23500;53.268;8.308;2022-09-01T06:17:56;20.50;68.50
37658;DHT22;23500;53.268;8.308;2022-09-01T06:20:22;20.60;67.70
37658;DHT22;23500;53.268;8.308;2022-09-01T06:22:48;20.60;68.20
37658;DHT22;23500;53.268;8.308;2022-09-01T06:25:14;20.60;67.50
37658;DHT22;23500;53.268;8.308;2022-09-01T06:27:44;20.70;67.90
37658;DHT22;23500;53.268;8.308;2022-09-01T06:30:11;20.70;67.90
37658;DHT22;23500;53.268;8.308;2022-09-01T06:32:43;20.70;68.30
37658;DHT22;23500;53.268;8.308;2022-09-01T06:35:10;20.70;68.60
37658;DHT22;23500;53.268;8.308;2022-09-01T06:37:37;20.80;67.90
37658;DHT22;23500;53.268;8.308;2022-09-01T06:40:04;20.80;68.00
37658;DHT22;23500;53.268;8.308;2022-09-01T06:42:30;20.80;67.80
37658;DHT22;23500;53.268;8.308;2022-09-01T06:45:00;20.90;68.20
37658;DHT22;23500;53.268;8.308;2022-09-01T06:47:26;20.90;67.20
37658;DHT22;23500;53.268;8.308;2022-09-01T06:49:53;20.90;67.60
37658;DHT22;23500;53.268;8.308;2022-09-01T06:52:24;20.90;68.60
37658;DHT22;23500;53.268;8.308;2022-09-01T06:54:50;20.90;67.80
37658;DHT22;23500;53.268;8.308;2022-09-01T06:57:17;21.00;65.30
37658;DHT22;23500;53.268;8.308;2022-09-01T06:59:43;21.00;68.30
37658;DHT22;23500;53.268;8.308;2022-09-01T07:02:10;21.00;69.00
37658;DHT22;23500;53.268;8.308;2022-09-01T07:04:41;21.10;68.80
37658;DHT22;23500;53.268;8.308;2022-09-01T07:07:10;21.10;68.70
37658;DHT22;23500;53.268;8.308;2022-09-01T07:09:38;21.10;67.00
37658;DHT22;23500;53.268;8.308;2022-09-01T07:12:05;21.10;66.10
37658;DHT22;23500;53.268;8.308;2022-09-01T07:14:30;21.20;68.20
37658;DHT22;23500;53.268;8.308;2022-09-01T07:16:56;21.20;68.90
37658;DHT22;23500;53.268;8.308;2022-09-01T07:19:23;21.30;67.90
37658;DHT22;23500;53.268;8.308;2022-09-01T07:21:51;21.30;68.70
37658;DHT22;23500;53.268;8.308;2022-09-01T07:24:17;21.30;67.60
37658;DHT22;23500;53.268;8.308;2022-09-01T07:26:45;21.40;68.60
37658;DHT22;23500;53.268;8.308;2022-09-01T07:29:18;21.40;68.50
37658;DHT22;23500;53.268;8.308;2022-09-01T07:31:47;21.40;68.00
37658;DHT22;23500;53.268;8.308;2022-09-01T07:34:14;21.50;67.10
37658;DHT22;23500;53.268;8.308;2022-09-01T07:36:42;21.50;68.10
37658;DHT22;23500;53.268;8.308;2022-09-01T07:39:10;21.50;67.30
37658;DHT22;23500;53.268;8.308;2022-09-01T07:41:36;21.60;67.30
37658;DHT22;23500;53.268;8.308;2022-09-01T07:44:03;21.60;67.60
37658;DHT22;23500;53.268;8.308;2022-09-01T07:46:30;21.70;67.20
37658;DHT22;23500;53.268;8.308;2022-09-01T07:49:00;21.70;67.40
37658;DHT22;23500;53.268;8.308;2022-09-01T07:51:27;21.80;67.10
37658;DHT22;23500;53.268;8.308;2022-09-01T07:53:53;21.80;66.30
37658;DHT22;23500;53.268;8.308;2022-09-01T07:56:20;21.80;65.70
37658;DHT22;23500;53.268;8.308;2022-09-01T07:58:48;21.80;66.10
37658;DHT22;23500;53.268;8.308;2022-09-01T08:01:17;21.90;65.90
37658;DHT22;23500;53.268;8.308;2022-09-01T08:03:44;21.90;65.10
37658;DHT22;23500;53.268;8.308;2022-09-01T08:06:13;21.90;64.60
37658;DHT22;23500;53.268;8.308;2022-09-01T08:08:39;21.90;66.20
37658;DHT22;23500;53.268;8.308;2022-09-01T08:11:06;21.90;66.60
37658;DHT22;23500;53.268;8.308;2022-09-01T08:13:33;22.00;66.40
37658;DHT22;23500;53.268;8.308;2022-09-01T08:16:03;22.00;66.50
37658;DHT22;23500;53.268;8.308;2022-09-01T08:18:29;22.00;65.50
37658;DHT22;23500;53.268;8.308;2022-09-01T08:20:55;22.00;64.60
37658;DHT22;23500;53.268;8.308;2022-09-01T08:23:21;22.00;64.00
37658;DHT22;23500;53.268;8.308;2022-09-01T08:25:51;22.00;65.20
37658;DHT22;23500;53.268;8.308;2022-09-01T08:28:17;22.10;62.70
37658;DHT22;23500;53.268;8.308;2022-09-01T08:30:44;22.10;64.80
37658;DHT22;23500;53.268;8.308;2022-09-01T08:33:10;22.10;64.70
37658;DHT22;23500;53.268;8.308;2022-09-01T08:35:47;22.10;64.70
37658;DHT22;23500;53.268;8.308;2022-09-01T08:38:13;22.10;64.70
37658;DHT22;23500;53.268;8.308;2022-09-01T08:40:40;22.10;64.00
37658;DHT22;23500;53.268;8.308;2022-09-01T08:45:57;22.10;64.30
37658;DHT22;23500;53.268;8.308;2022-09-01T08:48:33;22.10;64.20
37658;DHT22;23500;53.268;8.308;2022-09-01T08:54:28;22.10;63.20
37658;DHT22;23500;53.268;8.308;2022-09-01T08:57:01;22.10;64.50
37658;DHT22;23500;53.268;8.308;2022-09-01T08:59:29;22.10;66.10
37658;DHT22;23500;53.268;8.308;2022-09-01T09:10:41;22.10;63.60
37658;DHT22;23500;53.268;8.308;2022-09-01T09:16:11;22.10;64.30
37658;DHT22;23500;53.268;8.308;2022-09-01T09:18:59;22.00;66.00
37658;DHT22;23500;53.268;8.308;2022-09-01T09:21:42;22.00;61.80
37658;DHT22;23500;53.268;8.308;2022-09-01T09:24:23;22.00;63.90
37658;DHT22;23500;53.268;8.308;2022-09-01T09:26:52;22.00;64.50
37658;DHT22;23500;53.268;8.308;2022-09-01T09:29:19;22.00;63.20
37658;DHT22;23500;53.268;8.308;2022-09-01T09:31:48;22.00;63.20
37658;DHT22;23500;53.268;8.308;2022-09-01T09:34:37;22.00;62.70
37658;DHT22;23500;53.268;8.308;2022-09-01T09:39:45;22.00;66.00
37658;DHT22;23500;53.268;8.308;2022-09-01T09:42:25;22.00;66.40
37658;DHT22;23500;53.268;8.308;2022-09-01T09:44:51;22.00;67.10
37658;DHT22;23500;53.268;8.308;2022-09-01T09:47:39;22.00;65.40
37658;DHT22;23500;53.268;8.308;2022-09-01T09:50:19;22.00;66.80
37658;DHT22;23500;53.268;8.308;2022-09-01T09:52:46;22.00;66.70
37658;DHT22;23500;53.268;8.308;2022-09-01T09:55:30;22.00;66.70
37658;DHT22;23500;53.268;8.308;2022-09-01T09:58:01;22.00;66.70
37658;DHT22;23500;53.268;8.308;2022-09-01T10:00:34;22.00;66.90
37658;DHT22;23500;53.268;8.308;2022-09-01T10:03:02;22.00;66.70
37658;DHT22;23500;53.268;8.308;2022-09-01T10:05:46;22.00;65.20
37658;DHT22;23500;53.268;8.308;2022-09-01T10:11:05;22.00;67.30
37658;DHT22;23500;53.268;8.308;2022-09-01T10:13:31;22.00;66.80
37658;DHT22;23500;53.268;8.308;2022-09-01T10:16:06;22.00;66.90
37658;DHT22;23500;53.268;8.308;2022-09-01T10:18:41;22.00;65.90
37658;DHT22;23500;53.268;8.308;2022-09-01T10:21:17;22.00;66.90
37658;DHT22;23500;53.268;8.308;2022-09-01T10:23:48;22.00;66.40
37658;DHT22;23500;53.268;8.308;2022-09-01T10:26:29;22.00;65.30
37658;DHT22;23500;53.268;8.308;2022-09-01T10:29:07;22.00;66.20
37658;DHT22;23500;53.268;8.308;2022-09-01T10:31:39;22.00;65.00
37658;DHT22;23500;53.268;8.308;2022-09-01T10:34:05;22.00;66.30
37658;DHT22;23500;53.268;8.308;2022-09-01T10:36:35;22.00;66.50
37658;DHT22;23500;53.268;8.308;2022-09-01T10:39:02;22.00;66.70
37658;DHT22;23500;53.268;8.308;2022-09-01T10:41:45;22.00;66.70
37658;DHT22;23500;53.268;8.308;2022-09-01T10:46:51;22.00;66.80
37658;DHT22;23500;53.268;8.308;2022-09-01T10:52:08;22.00;66.40
37658;DHT22;23500;53.268;8.308;2022-09-01T11:00:42;22.10;66.20
37658;DHT22;23500;53.268;8.308;2022-09-01T11:08:38;22.00;66.40
37658;DHT22;23500;53.268;8.308;2022-09-01T11:11:26;22.10;66.50
37658;DHT22;23500;53.268;8.308;2022-09-01T11:13:55;22.00;66.60
37658;DHT22;23500;53.268;8.308;2022-09-01T11:16:35;22.00;63.90
37658;DHT22;23500;53.268;8.308;2022-09-01T11:21:46;22.10;66.30
37658;DHT22;23500;53.268;8.308;2022-09-01T11:27:04;22.10;66.30
37658;DHT22;23500;53.268;8.308;2022-09-01T11:29:56;22.10;66.40
37658;DHT22;23500;53.268;8.308;2022-09-01T11:32:33;22.10;66.50
37658;DHT22;23500;53.268;8.308;2022-09-01T11:35:16;22.10;67.20
37658;DHT22;23500;53.268;8.308;2022-09-01T11:37:47;22.10;66.40
37658;DHT22;23500;53.268;8.308;2022-09-01T11:40:20;22.10;66.40
37658;DHT22;23500;53.268;8.308;2022-09-01T11:42:48;22.10;66.40
37658;DHT22;23500;53.268;8.308;2022-09-01T11:47:50;22.10;66.40
37658;DHT22;23500;53.268;8.308;2022-09-01T11:50:21;22.10;66.40
37658;DHT22;23500;53.268;8.308;2022-09-01T11:55:39;22.10;67.00
37658;DHT22;23500;53.268;8.308;2022-09-01T11:58:10;22.20;66.20
37658;DHT22;23500;53.268;8.308;2022-09-01T12:00:38;22.20;66.30
37658;DHT22;23500;53.268;8.308;2022-09-01T12:03:28;22.20;66.30
37658;DHT22;23500;53.268;8.308;2022-09-01T12:06:05;22.10;66.20
37658;DHT22;23500;53.268;8.308;2022-09-01T12:08:42;22.10;66.30
37658;DHT22;23500;53.268;8.308;2022-09-01T12:11:21;22.20;66.20
37658;DHT22;23500;53.268;8.308;2022-09-01T12:14:18;22.10;66.30
37658;DHT22;23500;53.268;8.308;2022-09-01T12:16:56;22.20;66.20
37658;DHT22;23500;53.268;8.308;2022-09-01T12:19:24;22.20;66.30
37658;DHT22;23500;53.268;8.308;2022-09-01T12:22:12;22.20;66.30
37658;DHT22;23500;53.268;8.308;2022-09-01T12:24:45;22.20;66.40
37658;DHT22;23500;53.268;8.308;2022-09-01T12:27:11;22.20;66.30
37658;DHT22;23500;53.268;8.308;2022-09-01T12:29:37;22.20;66.30
37658;DHT22;23500;53.268;8.308;2022-09-01T12:32:04;22.20;66.20
37658;DHT22;23500;53.268;8.308;2022-09-01T12:37:21;22.20;65.90
37658;DHT22;23500;53.268;8.308;2022-09-01T12:39:49;22.20;65.30
37658;DHT22;23500;53.268;8.308;2022-09-01T12:44:48;22.20;66.00
37658;DHT22;23500;53.268;8.308;2022-09-01T12:50:30;22.30;66.50
37658;DHT22;23500;53.268;8.308;2022-09-01T12:53:00;22.20;65.70
37658;DHT22;23500;53.268;8.308;2022-09-01T12:55:36;22.20;65.80
37658;DHT22;23500;53.268;8.308;2022-09-01T12:58:04;22.20;64.30
37658;DHT22;23500;53.268;8.308;2022-09-01T13:00:36;22.20;65.70
37658;DHT22;23500;53.268;8.308;2022-09-01T13:03:17;22.20;65.60
37658;DHT22;23500;53.268;8.308;2022-09-01T13:05:49;22.20;65.70
37658;DHT22;23500;53.268;8.308;2022-09-01T13:08:27;22.20;65.70
37658;DHT22;23500;53.268;8.308;2022-09-01T13:11:03;22.20;65.60
37658;DHT22;23500;53.268;8.308;2022-09-01T13:13:29;22.20;65.50
37658;DHT22;23500;53.268;8.308;2022-09-01T13:15:57;22.20;65.70
37658;DHT22;23500;53.268;8.308;2022-09-01T13:18:37;22.30;65.70
37658;DHT22;23500;53.268;8.308;2022-09-01T13:21:03;22.20;65.60
37658;DHT22;23500;53.268;8.308;2022-09-01T13:23:30;22.30;65.60
37658;DHT22;23500;53.268;8.308;2022-09-01T13:25:56;22.20;65.60
37658;DHT22;23500;53.268;8.308;2022-09-01T13:28:24;22.20;65.60
37658;DHT22;23500;53.268;8.308;2022-09-01T13:31:00;22.30;65.60
37658;DHT22;23500;53.268;8.308;2022-09-01T13:33:26;22.30;65.50
37658;DHT22;23500;53.268;8.308;2022-09-01T13:35:53;22.30;65.40
37658;DHT22;23500;53.268;8.308;2022-09-01T13:38:20;22.30;65.40
37658;DHT22;23500;53.268;8.308;2022-09-01T13:40:47;22.30;65.50
37658;DHT22;23500;53.268;8.308;2022-09-01T13:43:19;22.30;65.40
37658;DHT22;23500;53.268;8.308;2022-09-01T13:45:45;22.30;65.30
37658;DHT22;23500;53.268;8.308;2022-09-01T13:48:12;22.30;65.40
37658;DHT22;23500;53.268;8.308;2022-09-01T13:50:38;22.30;66.10
37658;DHT22;23500;53.268;8.308;2022-09-01T13:53:04;22.30;65.40
37658;DHT22;23500;53.268;8.308;2022-09-01T13:55:33;22.30;65.40
37658;DHT22;23500;53.268;8.308;2022-09-01T13:57:59;22.30;65.20
37658;DHT22;23500;53.268;8.308;2022-09-01T14:00:28;22.30;65.30
37658;DHT22;23500;53.268;8.308;2022-09-01T14:02:57;22.30;65.30
37658;DHT22;23500;53.268;8.308;2022-09-01T14:05:27;22.30;65.30
37658;DHT22;23500;53.268;8.308;2022-09-01T14:07:53;22.30;65.30
37658;DHT22;23500;53.268;8.308;2022-09-01T14:10:20;22.30;65.30
37658;DHT22;23500;53.268;8.308;2022-09-01T14:12:47;22.30;65.40
37658;DHT22;23500;53.268;8.308;2022-09-01T14:15:15;22.30;65.40
37658;DHT22;23500;53.268;8.308;2022-09-01T14:17:41;22.30;65.30
37658;DHT22;23500;53.268;8.308;2022-09-01T14:20:11;22.30;65.20
37658;DHT22;23500;53.268;8.308;2022-09-01T14:22:38;22.30;65.20
37658;DHT22;23500;53.268;8.308;2022-09-01T14:25:08;22.30;64.00
37658;DHT22;23500;53.268;8.308;2022-09-01T14:27:35;22.30;65.20
37658;DHT22;23500;53.268;8.308;2022-09-01T14:30:02;22.30;65.20
37658;DHT22;23500;53.268;8.308;2022-09-01T14:32:28;22.30;65.20
37658;DHT22;23500;53.268;8.308;2022-09-01T14:34:54;22.30;65.30
37658;DHT22;23500;53.268;8.308;2022-09-01T14:37:21;22.30;62.80
37658;DHT22;23500;53.268;8.308;2022-09-01T14:39:52;22.30;65.10
37658;DHT22;23500;53.268;8.308;2022-09-01T14:42:18;22.30;63.60
37658;DHT22;23500;53.268;8.308;2022-09-01T14:44:45;22.30;65.00
37658;DHT22;23500;53.268;8.308;2022-09-01T14:47:11;22.30;65.10
37658;DHT22;23500;53.268;8.308;2022-09-01T14:49:37;22.30;65.10
37658;DHT22;23500;53.268;8.308;2022-09-01T14:52:05;22.30;65.00
37658;DHT22;23500;53.268;8.308;2022-09-01T14:54:37;22.30;65.00
37658;DHT22;23500;53.268;8.308;2022-09-01T14:57:04;22.30;63.80
37658;DHT22;23500;53.268;8.308;2022-09-01T14:59:30;22.30;65.00
37658;DHT22;23500;53.268;8.308;2022-09-01T15:01:56;22.30;65.00
37658;DHT22;23500;53.268;8.308;2022-09-01T15:04:22;22.30;65.00
37658;DHT22;23500;53.268;8.308;2022-09-01T15:06:48;22.30;65.00
37658;DHT22;23500;53.268;8.308;2022-09-01T15:09:13;22.30;65.00
37658;DHT22;23500;53.268;8.308;2022-09-01T15:11:41;22.30;60.20
37658;DHT22;23500;53.268;8.308;2022-09-01T15:14:07;22.30;65.00
37658;DHT22;23500;53.268;8.308;2022-09-01T15:16:35;22.30;65.00
37658;DHT22;23500;53.268;8.308;2022-09-01T15:19:05;22.30;65.00
37658;DHT22;23500;53.268;8.308;2022-09-01T15:21:31;22.30;65.00
37658;DHT22;23500;53.268;8.308;2022-09-01T15:23:59;22.30;65.00
37658;DHT22;23500;53.268;8.308;2022-09-01T15:26:25;22.30;65.00
37658;DHT22;23500;53.268;8.308;2022-09-01T15:28:51;22.40;65.10
37658;DHT22;23500;53.268;8.308;2022-09-01T15:31:19;22.30;65.00
37658;DHT22;23500;53.268;8.308;2022-09-01T15:33:45;22.30;65.00
37658;DHT22;23500;53.268;8.308;2022-09-01T15:36:16;22.30;65.00
37658;DHT22;23500;53.268;8.308;2022-09-01T15:38:42;22.30;65.00
37658;DHT22;23500;53.268;8.308;2022-09-01T15:41:08;22.30;64.90
37658;DHT22;23500;53.268;8.308;2022-09-01T15:43:34;22.30;64.90
37658;DHT22;23500;53.268;8.308;2022-09-01T15:46:03;22.30;64.70
37658;DHT22;23500;53.268;8.308;2022-09-01T15:48:29;22.40;64.90
37658;DHT22;23500;53.268;8.308;2022-09-01T15:53:44;22.30;64.80
37658;DHT22;23500;53.268;8.308;2022-09-01T15:56:10;22.40;62.80
37658;DHT22;23500;53.268;8.308;2022-09-01T15:58:35;22.40;64.50
37658;DHT22;23500;53.268;8.308;2022-09-01T16:01:01;22.40;64.50
37658;DHT22;23500;53.268;8.308;2022-09-01T16:03:26;22.30;64.60
37658;DHT22;23500;53.268;8.308;2022-09-01T16:05:54;22.30;64.70
37658;DHT22;23500;53.268;8.308;2022-09-01T16:08:20;22.40;64.70
37658;DHT22;23500;53.268;8.308;2022-09-01T16:10:46;22.40;64.80
37658;DHT22;23500;53.268;8.308;2022-09-01T16:13:11;22.30;64.80
37658;DHT22;23500;53.268;8.308;2022-09-01T16:15:47;22.30;64.70
37658;DHT22;23500;53.268;8.308;2022-09-01T16:21:00;22.40;64.90
37658;DHT22;23500;53.268;8.308;2022-09-01T16:23:54;22.30;64.80
37658;DHT22;23500;53.268;8.308;2022-09-01T16:26:21;22.40;64.80
37658;DHT22;23500;53.268;8.308;2022-09-01T16:28:54;22.30;64.90
37658;DHT22;23500;53.268;8.308;2022-09-01T16:31:27;22.30;64.90
37658;DHT22;23500;53.268;8.308;2022-09-01T16:33:56;22.40;64.90
37658;DHT22;23500;53.268;8.308;2022-09-01T16:44:40;22.30;64.30
37658;DHT22;23500;53.268;8.308;2022-09-01T16:50:28;22.40;64.20
37658;DHT22;23500;53.268;8.308;2022-09-01T16:58:12;22.30;62.00
37658;DHT22;23500;53.268;8.308;2022-09-01T17:01:02;22.30;63.40
37658;DHT22;23500;53.268;8.308;2022-09-01T17:03:40;22.30;61.50
37658;DHT22;23500;53.268;8.308;2022-09-01T17:06:38;22.30;61.80
37658;DHT22;23500;53.268;8.308;2022-09-01T17:09:16;22.40;63.60
37658;DHT22;23500;53.268;8.308;2022-09-01T17:11:49;22.30;63.30
37658;DHT22;23500;53.268;8.308;2022-09-01T17:14:21;22.30;63.60